createdAt,value
2022-10-30T00:02:54.566Z,17.40
2022-10-30T00:06:57.598Z,17.30
2022-10-30T00:11:06.115Z,17.40
2022-10-30T00:15:10.979Z,17.40
2022-10-30T00:19:13.836Z,17.40
2022-10-30T00:23:16.663Z,17.40
2022-10-30T00:27:19.536Z,17.40
2022-10-30T00:31:24.020Z,17.40
2022-10-30T00:35:40.868Z,17.40
2022-10-30T00:39:43.826Z,17.40
2022-10-30T00:43:48.955Z,17.40
2022-10-30T00:47:55.005Z,17.40
2022-10-30T00:51:58.163Z,17.30
2022-10-30T00:56:02.959Z,17.40
2022-10-30T01:00:06.709Z,17.30
2022-10-30T01:04:13.789Z,17.30
2022-10-30T01:08:16.613Z,17.30
2022-10-30T01:12:19.545Z,17.30
2022-10-30T01:16:41.823Z,17.30
2022-10-30T01:21:04.837Z,17.30
2022-10-30T01:25:13.158Z,17.30
2022-10-30T01:29:23.400Z,17.30
2022-10-30T01:33:31.302Z,17.30
2022-10-30T01:37:38.491Z,17.20
2022-10-30T01:41:41.367Z,17.20
2022-10-30T01:45:54.261Z,17.30
2022-10-30T01:50:06.926Z,17.30
2022-10-30T01:54:14.084Z,17.30
2022-10-30T01:58:20.737Z,17.20
2022-10-30T02:02:24.006Z,17.20
2022-10-30T02:06:27.080Z,17.20
2022-10-30T02:10:32.506Z,17.20
2022-10-30T02:14:37.545Z,17.20
2022-10-30T02:18:40.398Z,17.10
2022-10-30T02:22:44.726Z,17.20
2022-10-30T02:26:47.666Z,17.10
2022-10-30T02:30:50.525Z,17.10
2022-10-30T02:34:53.354Z,17.10
2022-10-30T02:38:57.625Z,17.10
2022-10-30T02:43:00.690Z,17.10
2022-10-30T02:47:03.570Z,17.10
2022-10-30T02:51:06.753Z,17.10
2022-10-30T02:55:11.057Z,17.10
2022-10-30T02:59:13.927Z,17.10
2022-10-30T03:03:19.986Z,17.10
2022-10-30T03:07:25.977Z,17.00
2022-10-30T03:11:30.295Z,17.00
2022-10-30T03:15:33.140Z,17.00
2022-10-30T03:19:36.408Z,17.00
2022-10-30T03:23:39.290Z,16.90
2022-10-30T03:27:43.511Z,16.90
2022-10-30T03:31:46.385Z,16.90
2022-10-30T03:35:50.288Z,16.90
2022-10-30T03:39:53.151Z,16.90
2022-10-30T03:43:57.362Z,16.90
2022-10-30T03:48:00.821Z,16.90
2022-10-30T03:52:04.034Z,16.90
2022-10-30T03:56:07.375Z,16.90
2022-10-30T04:00:12.885Z,16.90
2022-10-30T04:04:15.849Z,16.90
2022-10-30T04:08:19.049Z,16.90
2022-10-30T04:12:21.885Z,16.90
2022-10-30T04:16:26.146Z,16.90
2022-10-30T04:20:29.027Z,16.90
2022-10-30T04:24:31.855Z,16.90
2022-10-30T04:28:34.725Z,16.90
2022-10-30T04:32:46.363Z,16.90
2022-10-30T04:36:49.231Z,16.90
2022-10-30T04:40:52.100Z,16.90
2022-10-30T04:44:55.074Z,16.90
2022-10-30T04:48:59.283Z,16.80
2022-10-30T04:53:03.075Z,16.80
2022-10-30T04:57:06.005Z,16.80
2022-10-30T05:01:09.058Z,16.80
2022-10-30T05:05:13.347Z,16.80
2022-10-30T05:09:16.177Z,16.80
2022-10-30T05:13:19.042Z,16.80
2022-10-30T05:17:21.954Z,16.70
2022-10-30T05:21:26.253Z,16.70
2022-10-30T05:25:29.176Z,16.70
2022-10-30T05:29:32.003Z,16.60
2022-10-30T05:33:34.895Z,16.60
2022-10-30T05:37:39.137Z,16.60
2022-10-30T05:41:42.014Z,16.50
2022-10-30T05:45:45.034Z,16.50
2022-10-30T05:49:47.882Z,16.50
2022-10-30T05:53:52.075Z,16.40
2022-10-30T05:57:57.029Z,16.40
2022-10-30T06:02:00.295Z,16.40
2022-10-30T06:06:03.316Z,16.30
2022-10-30T06:10:08.027Z,16.30
2022-10-30T06:14:10.870Z,16.20
2022-10-30T06:18:13.714Z,16.10
2022-10-30T06:22:16.575Z,16.10
2022-10-30T06:26:20.842Z,16.10
2022-10-30T06:30:24.030Z,16.00
2022-10-30T06:34:27.255Z,16.00
2022-10-30T06:38:30.210Z,15.90
2022-10-30T06:42:34.561Z,15.90
2022-10-30T06:46:37.460Z,15.90
2022-10-30T06:50:40.316Z,15.80
2022-10-30T06:54:43.156Z,15.80
2022-10-30T06:58:47.418Z,15.80
2022-10-30T07:02:57.516Z,15.70
2022-10-30T07:07:00.664Z,15.70
2022-10-30T07:11:03.679Z,15.70
2022-10-30T07:15:08.678Z,15.70
2022-10-30T07:19:11.621Z,15.80
2022-10-30T07:23:14.484Z,15.80
2022-10-30T07:27:17.334Z,15.80
2022-10-30T07:31:34.849Z,15.80
2022-10-30T07:35:44.434Z,15.80
2022-10-30T07:39:47.293Z,15.90
2022-10-30T07:43:50.145Z,15.90
2022-10-30T07:47:54.815Z,16.00
2022-10-30T07:51:57.731Z,16.00
2022-10-30T07:56:00.715Z,16.10
2022-10-30T08:00:04.756Z,16.20
2022-10-30T08:04:11.259Z,16.30
2022-10-30T08:08:14.193Z,16.40
2022-10-30T08:12:17.062Z,16.60
2022-10-30T08:16:19.914Z,17.00
2022-10-30T08:20:25.111Z,17.70
2022-10-30T08:24:28.040Z,18.50
2022-10-30T08:28:32.827Z,19.40
2022-10-30T08:32:36.069Z,20.30
2022-10-30T08:36:42.708Z,21.20
2022-10-30T08:40:48.205Z,22.00
2022-10-30T08:44:51.159Z,22.60
2022-10-30T08:48:55.019Z,23.10
2022-10-30T08:53:03.165Z,23.70
2022-10-30T08:57:07.474Z,24.30
2022-10-30T09:01:10.396Z,24.70
2022-10-30T09:05:13.251Z,25.10
2022-10-30T09:09:17.545Z,25.40
2022-10-30T09:13:20.398Z,25.90
2022-10-30T09:17:23.263Z,26.30
2022-10-30T09:21:26.132Z,26.60
2022-10-30T09:25:30.403Z,26.90
2022-10-30T09:29:35.573Z,27.30
2022-10-30T09:33:38.445Z,27.70
2022-10-30T09:37:41.359Z,28.10
2022-10-30T09:41:57.032Z,28.40
2022-10-30T09:46:19.984Z,28.70
2022-10-30T09:50:26.934Z,29.00
2022-10-30T09:54:38.204Z,29.30
2022-10-30T09:58:50.096Z,29.80
2022-10-30T10:02:57.903Z,30.00
2022-10-30T10:07:03.114Z,30.20
2022-10-30T10:15:15.456Z,30.60
2022-10-30T10:19:21.076Z,31.00
2022-10-30T10:23:27.990Z,31.20
2022-10-30T10:27:39.406Z,31.40
2022-10-30T10:31:46.879Z,31.60
2022-10-30T10:36:02.185Z,31.70
2022-10-30T10:40:17.540Z,31.80
2022-10-30T10:44:27.202Z,31.80
2022-10-30T10:48:42.690Z,31.90
2022-10-30T10:52:48.530Z,32.10
2022-10-30T10:56:52.131Z,32.10
2022-10-30T11:00:57.359Z,32.30
2022-10-30T11:05:06.367Z,32.50
2022-10-30T11:09:15.271Z,32.60
2022-10-30T11:13:18.223Z,32.80
2022-10-30T11:17:23.550Z,32.90
2022-10-30T11:21:28.846Z,33.20
2022-10-30T11:25:35.170Z,33.50
2022-10-30T11:29:38.174Z,33.80
2022-10-30T11:33:41.045Z,33.90
2022-10-30T11:37:46.348Z,34.10
2022-10-30T11:41:54.869Z,34.20
2022-10-30T11:45:58.530Z,34.20
2022-10-30T11:50:02.411Z,34.30
2022-10-30T11:54:07.677Z,34.50
2022-10-30T11:58:24.127Z,34.50
2022-10-30T12:02:30.710Z,34.50
2022-10-30T12:06:33.672Z,34.40
2022-10-30T12:10:43.274Z,34.50
2022-10-30T12:14:46.085Z,34.50
2022-10-30T12:18:54.490Z,34.40
2022-10-30T12:22:57.689Z,34.40
2022-10-30T12:27:04.317Z,34.40
2022-10-30T12:31:10.666Z,34.30
2022-10-30T12:35:22.887Z,34.10
2022-10-30T12:39:30.536Z,33.50
2022-10-30T12:43:36.109Z,32.80
2022-10-30T12:47:42.281Z,32.10
2022-10-30T12:51:49.748Z,31.50
2022-10-30T12:55:55.596Z,31.00
2022-10-30T13:00:02.617Z,30.50
2022-10-30T13:04:09.697Z,30.00
2022-10-30T13:08:16.104Z,29.60
2022-10-30T13:12:20.760Z,29.20
2022-10-30T13:16:26.971Z,28.90
2022-10-30T13:20:31.450Z,28.60
2022-10-30T13:24:41.698Z,28.30
2022-10-30T13:28:47.593Z,28.10
2022-10-30T13:33:00.825Z,27.80
2022-10-30T13:37:06.908Z,27.60
2022-10-30T13:41:15.405Z,27.40
2022-10-30T13:45:29.707Z,27.10
2022-10-30T13:49:49.068Z,26.90
2022-10-30T13:53:56.997Z,26.70
2022-10-30T13:58:02.943Z,26.50
2022-10-30T14:02:10.739Z,26.40
2022-10-30T14:06:19.703Z,26.20
2022-10-30T14:10:28.455Z,26.10
2022-10-30T14:14:32.026Z,26.00
2022-10-30T14:18:52.833Z,25.80
2022-10-30T14:23:10.050Z,25.70
2022-10-30T14:27:19.201Z,25.60
2022-10-30T14:31:34.222Z,25.50
2022-10-30T14:35:38.935Z,25.50
2022-10-30T14:39:43.754Z,25.30
2022-10-30T14:43:50.026Z,25.20
2022-10-30T14:47:55.822Z,25.10
2022-10-30T14:52:05.634Z,25.00
2022-10-30T14:56:18.353Z,24.90
2022-10-30T15:00:40.191Z,24.80
2022-10-30T15:04:48.436Z,24.60
2022-10-30T15:09:14.887Z,24.40
2022-10-30T15:13:20.228Z,24.30
2022-10-30T15:17:26.738Z,24.10
2022-10-30T15:21:33.046Z,23.90
2022-10-30T15:25:37.960Z,23.80
2022-10-30T15:29:44.478Z,23.60
2022-10-30T15:33:47.611Z,23.50
2022-10-30T15:38:00.236Z,23.30
2022-10-30T15:42:04.228Z,23.10
2022-10-30T15:46:16.012Z,22.90
2022-10-30T15:50:21.766Z,22.80
2022-10-30T15:54:25.822Z,22.60
2022-10-30T15:58:32.545Z,22.40
2022-10-30T16:02:37.461Z,22.30
2022-10-30T16:06:40.335Z,22.10
2022-10-30T16:10:44.238Z,21.90
2022-10-30T16:14:47.115Z,21.70
2022-10-30T16:18:51.697Z,21.60
2022-10-30T16:22:54.680Z,21.40
2022-10-30T16:27:03.817Z,21.20
2022-10-30T16:31:07.713Z,21.00
2022-10-30T16:35:12.672Z,20.90
2022-10-30T16:39:16.521Z,20.70
2022-10-30T16:43:27.007Z,20.50
2022-10-30T16:47:30.015Z,20.40
2022-10-30T16:51:34.338Z,20.20
2022-10-30T16:55:38.596Z,20.10
2022-10-30T16:59:46.122Z,20.00
2022-10-30T17:03:50.165Z,19.80
2022-10-30T17:07:58.341Z,19.70
2022-10-30T17:12:03.688Z,19.60
2022-10-30T17:16:18.856Z,19.50
2022-10-30T17:20:30.864Z,19.40
2022-10-30T17:24:36.810Z,19.30
2022-10-30T17:28:40.688Z,19.10
2022-10-30T17:32:44.254Z,19.00
2022-10-30T17:36:47.792Z,18.90
2022-10-30T17:40:52.140Z,18.70
2022-10-30T17:44:55.009Z,18.60
2022-10-30T17:48:58.689Z,18.50
2022-10-30T17:53:02.008Z,18.40
2022-10-30T17:57:06.560Z,18.30
2022-10-30T18:01:10.824Z,18.20
2022-10-30T18:05:15.706Z,18.20
2022-10-30T18:09:18.592Z,18.10
2022-10-30T18:13:22.825Z,18.10
2022-10-30T18:17:25.736Z,18.00
2022-10-30T18:21:28.666Z,18.00
2022-10-30T18:25:32.602Z,17.90
2022-10-30T18:29:37.303Z,17.80
2022-10-30T18:33:40.615Z,17.70
2022-10-30T18:37:43.627Z,17.70
2022-10-30T18:41:47.263Z,17.60
2022-10-30T18:45:51.744Z,17.60
2022-10-30T18:49:56.636Z,17.50
2022-10-30T18:54:00.104Z,17.40
2022-10-30T18:58:03.896Z,17.40
2022-10-30T19:02:16.191Z,17.30
2022-10-30T19:06:19.949Z,17.30
2022-10-30T19:10:22.966Z,17.20
2022-10-30T19:14:26.696Z,17.10
2022-10-30T19:18:32.775Z,17.10
2022-10-30T19:22:35.641Z,17.00
2022-10-30T19:26:38.488Z,17.00
2022-10-30T19:30:41.647Z,17.00
2022-10-30T19:34:45.960Z,16.90
2022-10-30T19:38:48.830Z,16.90
2022-10-30T19:42:51.741Z,16.90
2022-10-30T19:46:54.605Z,16.90
2022-10-30T19:50:59.754Z,16.90
2022-10-30T19:55:02.634Z,16.80
2022-10-30T19:59:06.881Z,16.80
2022-10-30T20:03:11.039Z,16.70
2022-10-30T20:07:15.246Z,16.70
2022-10-30T20:11:18.092Z,16.60
2022-10-30T20:15:22.471Z,16.50
2022-10-30T20:19:28.402Z,16.50
2022-10-30T20:23:32.942Z,16.40
2022-10-30T20:27:35.793Z,16.30
2022-10-30T20:31:38.681Z,16.30
2022-10-30T20:35:42.203Z,16.30
2022-10-30T20:39:46.416Z,16.30
2022-10-30T20:43:50.197Z,16.30
2022-10-30T20:47:53.074Z,16.30
2022-10-30T20:51:55.935Z,16.30
2022-10-30T20:56:01.201Z,16.30
2022-10-30T21:00:04.629Z,16.30
2022-10-30T21:08:10.951Z,16.20
2022-10-30T21:12:15.191Z,16.20
2022-10-30T21:16:18.126Z,16.10
2022-10-30T21:20:21.055Z,16.10
2022-10-30T21:28:28.458Z,16.00
2022-10-30T21:32:31.708Z,16.00
2022-10-30T21:36:35.674Z,15.90
2022-10-30T21:40:38.481Z,15.90
2022-10-30T21:44:42.668Z,15.90
2022-10-30T21:48:49.030Z,15.80
2022-10-30T21:52:51.965Z,15.80
2022-10-30T21:56:55.214Z,15.80
2022-10-30T22:00:59.784Z,15.80
2022-10-30T22:05:02.691Z,15.80
2022-10-30T22:09:06.635Z,15.80
2022-10-30T22:13:09.513Z,15.80
2022-10-30T22:17:14.036Z,15.80
2022-10-30T22:21:17.231Z,15.70
2022-10-30T22:25:21.535Z,15.70
2022-10-30T22:29:24.440Z,15.70
2022-10-30T22:33:30.400Z,15.70
2022-10-30T22:37:33.275Z,15.60
2022-10-30T22:41:38.074Z,15.60
2022-10-30T22:45:41.253Z,15.60
2022-10-30T22:53:49.550Z,15.50
2022-10-30T22:57:53.638Z,15.40
2022-10-30T23:01:56.621Z,15.40
2022-10-30T23:05:59.913Z,15.40
2022-10-30T23:10:04.276Z,15.40
2022-10-30T23:14:07.162Z,15.30
2022-10-30T23:18:10.006Z,15.30
2022-10-30T23:22:12.882Z,15.40
2022-10-30T23:26:17.984Z,15.40
2022-10-30T23:30:20.816Z,15.30
2022-10-30T23:34:23.654Z,15.30
2022-10-30T23:38:26.722Z,15.30
2022-10-30T23:42:30.945Z,15.30
2022-10-30T23:46:33.857Z,15.20
2022-10-30T23:50:36.981Z,15.20
2022-10-30T23:54:39.926Z,15.20
2022-10-30T23:58:45.054Z,15.10
